KDAY Airport Diagram

We have created a template for each of the higher traffic airports in the vZID airspace. They include KCMH, KCRW, KCVG, KDAY, KIND, KLEX and KSDF. You wil find usefull information including the airport diagram, weather, and specific airport procedures.

KDAY Weather

[Source: ADDS]
METAR
KDAY 200756Z 09013KT 3/4SM R06L/P6000FT -SN BR FEW005 OVC014 M02/M03 A3023 RMK AO2 SLP247 SNINCR 1/1 P0012 T10171033 $ =
KDAY 200652Z 2007/2106 09012KT 1/2SM SNPL OVC008 FM200800 10012KT 1SM -FZRAPLSN OVC006 FM201100 11012G18KT 2SM -RA OVC008 FM201400 12012G18KT 4SM -RA OVC005 FM201700 15012G18KT P6SM -RA OVC005 FM202100 17012KT 4SM -RA OVC004 WS020/21045KT FM210000 21012G18KT 2SM -RA OVC003 WS020/21045KT FM210200 25014G20KT 2SM -DZ OVC003
TAF
KDAY 200652Z 2007/2106 09012KT 1/2SM SNPL OVC008 FM200800 10012KT 1SM -FZRAPLSN OVC006 FM201100 11012G18KT 2SM -RA OVC008 FM201400 12012G18KT 4SM -RA OVC005 FM201700 15012G18KT P6SM -RA OVC005 FM202100 17012KT 4SM -RA OVC004 WS020/21045KT FM210000 21012G18KT 2SM -RA OVC003 WS020/21045KT FM210200 25014G20KT 2SM -DZ OVC003 =

KDAY Operations

Approach/Departure operations for KDAY were consolidated into the Columbus TRACON quite some time back. We have recently made that change here at ZID. When arriving/departing the Dayton Airport and airports in the surrounding area, contact with the Columbus APP/DEP controller, if online, should be expected.

Calm Wind Configuration is runways 24L/R. This configuration is used up to and including 10kts.

Runway 24L typically departs south and east, except larger aircraft requiring a longer runway.

Runway 24R typically departs north and west.

 

JSN Epic template designed by JoomlaShine.com